Time;durP1;ratioP1;P1;durP2;ratioP2;P2;SDS_P1;SDS_P2;PMS_P1;PMS_P2;Temp;Humidity;BMP_temperature;BMP_pressure;BME280_temperature;BME280_humidity;BME280_pressure;Samples;Min_cycle;Max_cycle;Signal;HPM_P1;HPM_P2
2022/02/28 00:00:19;;;;;;;11.13;8.83;;;;;;;-0.30;100.00;100853.97;5013670;28;20460;-75
2022/02/28 00:02:47;;;;;;;9.60;8.30;;;;;;;-0.29;100.00;100855.75;5013359;28;20473;-75
2022/02/28 00:05:13;;;;;;;10.23;8.63;;;;;;;-0.35;100.00;100847.59;5011076;28;20061;-74
2022/02/28 00:07:39;;;;;;;5.13;3.00;;;;;;;-0.51;100.00;100817.53;5013930;28;20091;-75
2022/02/28 00:10:06;;;;;;;6.53;2.90;;;;;;;-0.30;100.00;100853.09;5014017;28;20030;-74
2022/02/28 00:12:32;;;;;;;4.67;2.53;;;;;;;-0.36;100.00;100840.78;5013891;28;20065;-74
2022/02/28 00:14:57;;;;;;;4.23;2.07;;;;;;;-0.29;100.00;100855.75;5013733;28;20076;-75
2022/02/28 00:17:22;;;;;;;1.17;1.00;;;;;;;-0.26;100.00;100844.97;5013420;28;20033;-73
2022/02/28 00:19:48;;;;;;;1.10;1.00;;;;;;;-0.37;100.00;100832.25;5013941;28;20123;-75
2022/02/28 00:22:14;;;;;;;1.70;1.10;;;;;;;-0.32;100.00;100825.06;5013949;28;20461;-74
2022/02/28 00:24:39;;;;;;;1.30;1.10;;;;;;;-0.25;100.00;100841.69;5013932;28;20050;-74
2022/02/28 00:27:05;;;;;;;0.83;0.80;;;;;;;-0.28;100.00;100847.38;5013482;28;20111;-74
2022/02/28 00:29:30;;;;;;;2.20;1.00;;;;;;;-0.25;100.00;100840.06;5013438;28;20456;-74
2022/02/28 00:31:56;;;;;;;1.87;1.03;;;;;;;-0.23;100.00;100833.44;5013341;28;20036;-74
2022/02/28 00:34:21;;;;;;;0.90;0.90;;;;;;;-0.29;100.00;100827.84;5013157;28;20480;-76
2022/02/28 00:36:46;;;;;;;1.73;1.20;;;;;;;-0.61;100.00;100775.25;5013473;28;20026;-75
2022/02/28 00:39:12;;;;;;;6.30;3.67;;;;;;;-0.28;100.00;100833.81;5013543;28;20030;-75
2022/02/28 00:41:38;;;;;;;7.33;5.67;;;;;;;-0.27;100.00;100835.63;5013536;28;20113;-75
2022/02/28 00:44:03;;;;;;;15.40;12.20;;;;;;;-0.52;100.00;100806.47;5013549;28;20034;-76
2022/02/28 00:46:29;;;;;;;4.07;2.30;;;;;;;-0.54;100.00;100820.66;5012522;28;20106;-75
2022/02/28 00:48:54;;;;;;;8.70;7.80;;;;;;;-0.64;100.00;100779.16;5012562;28;20033;-75
2022/02/28 00:51:20;;;;;;;2.40;1.50;;;;;;;-0.32;100.00;100835.22;5012543;28;20030;-74
2022/02/28 00:53:45;;;;;;;2.97;1.60;;;;;;;-0.35;100.00;100820.63;4994394;28;20033;-73
2022/02/28 00:56:11;;;;;;;4.47;2.30;;;;;;;-0.35;100.00;100837.47;5013262;28;20029;-75
2022/02/28 00:58:37;;;;;;;3.13;1.50;;;;;;;-0.31;100.00;100834.47;5012636;28;20149;-74
2022/02/28 01:01:03;;;;;;;0.80;0.80;;;;;;;-0.36;100.00;100833.16;5012116;28;20068;-74
2022/02/28 01:03:29;;;;;;;1.10;1.00;;;;;;;-0.52;100.00;100803.06;5012085;28;20062;-74
2022/02/28 01:05:55;;;;;;;0.83;0.80;;;;;;;-0.38;100.00;100830.47;5012726;28;20468;-74
2022/02/28 01:08:20;;;;;;;0.70;0.70;;;;;;;-0.43;100.00;100823.25;5012378;28;20030;-74
2022/02/28 01:10:47;;;;;;;0.80;0.70;;;;;;;-0.56;100.00;100809.50;5012222;28;20472;-75
2022/02/28 01:13:13;;;;;;;0.80;0.80;;;;;;;-0.75;100.00;100779.09;5012689;28;20026;-75
2022/02/28 01:15:39;;;;;;;2.23;0.80;;;;;;;-0.37;100.00;100821.25;5011856;28;20128;-75
2022/02/28 01:18:05;;;;;;;0.70;0.70;;;;;;;-0.39;100.00;100828.69;5012190;28;20033;-75
2022/02/28 01:20:31;;;;;;;10.53;5.83;;;;;;;-0.48;100.00;100821.97;5012369;28;20032;-75
2022/02/28 01:22:56;;;;;;;1.63;1.10;;;;;;;-0.54;100.00;100819.78;5012619;28;20420;-75
2022/02/28 01:25:22;;;;;;;5.57;5.03;;;;;;;-0.45;100.00;100830.69;5012074;28;20088;-75
2022/02/28 01:27:47;;;;;;;39.00;31.10;;;;;;;-0.59;100.00;100809.22;5011793;28;20041;-74
2022/02/28 01:30:14;;;;;;;16.10;12.30;;;;;;;-0.35;100.00;100825.69;4994337;28;20117;-75
2022/02/28 01:32:39;;;;;;;3.00;2.30;;;;;;;-0.31;100.00;100825.94;5012147;28;20022;-73
2022/02/28 01:35:07;;;;;;;2.40;1.63;;;;;;;-0.36;100.00;100823.03;5011669;28;20494;-77
2022/02/28 01:37:33;;;;;;;1.63;1.20;;;;;;;-0.30;100.00;100827.72;4993052;28;20045;-75
2022/02/28 01:39:58;;;;;;;4.13;2.43;;;;;;;-0.39;100.00;100826.16;4992384;28;20034;-74
2022/02/28 01:42:24;;;;;;;4.77;3.00;;;;;;;-0.51;100.00;100795.56;4992273;28;20030;-73
2022/02/28 01:44:49;;;;;;;2.23;1.37;;;;;;;-0.41;100.00;100819.16;4974299;28;20081;-73
2022/02/28 01:47:15;;;;;;;0.97;0.90;;;;;;;-0.40;100.00;100826.03;4991851;28;20112;-73
2022/02/28 01:49:41;;;;;;;0.87;0.83;;;;;;;-0.59;100.00;100793.13;4991518;28;20033;-73
2022/02/28 01:52:07;;;;;;;1.53;1.03;;;;;;;-0.68;100.00;100785.63;4991599;28;20093;-73
2022/02/28 01:54:33;;;;;;;1.80;1.30;;;;;;;-0.51;100.00;100813.31;4992461;28;20485;-73
2022/02/28 01:56:58;;;;;;;1.77;1.23;;;;;;;-0.75;100.00;100770.63;4992225;28;20034;-74
2022/02/28 01:59:24;;;;;;;1.90;1.00;;;;;;;-0.42;100.00;100833.50;4992010;28;20409;-73
2022/02/28 02:01:49;;;;;;;1.83;1.10;;;;;;;-0.38;100.00;100825.41;4992278;28;20104;-74
2022/02/28 02:04:15;;;;;;;0.93;0.93;;;;;;;-0.40;100.00;100820.97;4990979;28;20037;-73
2022/02/28 02:06:40;;;;;;;1.07;0.90;;;;;;;-0.36;100.00;100828.09;4992074;28;20535;-73
2022/02/28 02:09:06;;;;;;;0.90;0.90;;;;;;;-0.42;100.00;100817.41;4991691;28;20026;-73
2022/02/28 02:11:32;;;;;;;2.67;1.80;;;;;;;-0.42;100.00;100822.50;4991857;28;20038;-73
2022/02/28 02:13:59;;;;;;;7.10;6.43;;;;;;;-1.18;100.00;100707.81;4989800;28;20164;-75
2022/02/28 02:16:24;;;;;;;16.10;14.50;;;;;;;-0.41;100.00;100824.25;4990967;28;20037;-75
2022/02/28 02:18:50;;;;;;;17.83;13.53;;;;;;;-0.56;100.00;100794.28;4991470;28;20038;-75
2022/02/28 02:21:15;;;;;;;18.93;16.63;;;;;;;-0.41;100.00;100820.09;4991003;28;20193;-76
2022/02/28 02:23:42;;;;;;;5.83;3.53;;;;;;;-0.46;100.00;100795.06;4974010;28;20099;-77
2022/02/28 02:26:09;;;;;;;4.87;2.50;;;;;;;-0.43;100.00;100821.59;4991868;28;20030;-76
2022/02/28 02:28:36;;;;;;;15.00;7.07;;;;;;;-0.45;100.00;100810.41;4990428;28;20567;-77
2022/02/28 02:31:04;;;;;;;7.03;3.10;;;;;;;-0.44;100.00;100816.38;4991472;28;20034;-76
2022/02/28 02:33:29;;;;;;;2.80;1.60;;;;;;;-0.44;100.00;100808.78;5002545;28;20121;-75
2022/02/28 02:35:58;;;;;;;1.90;1.30;;;;;;;-0.45;100.00;100812.06;5010268;28;20137;-76
2022/02/28 02:38:25;;;;;;;1.92;1.30;;;;;;;-0.50;100.00;100804.06;5010688;28;20057;-75
2022/02/28 02:40:51;;;;;;;1.67;1.10;;;;;;;-0.66;100.00;100785.00;5009289;28;20065;-75
2022/02/28 02:43:17;;;;;;;1.73;0.97;;;;;;;-0.56;100.00;100794.28;5008875;28;20527;-77
2022/02/28 02:45:42;;;;;;;3.23;1.40;;;;;;;-0.41;100.00;100817.53;5009659;28;20061;-73
2022/02/28 02:48:19;;;;;;;0.70;0.70;;;;;;;-0.45;100.00;100815.47;5010301;28;20400;-73
2022/02/28 02:50:45;;;;;;;0.80;0.80;;;;;;;-0.45;100.00;100820.56;5011029;28;20037;-72
2022/02/28 02:53:11;;;;;;;2.73;1.70;;;;;;;-0.44;100.00;100816.38;5009986;28;20036;-72
2022/02/28 02:55:37;;;;;;;9.87;6.67;;;;;;;-0.71;100.00;100781.16;5010058;28;20041;-73
2022/02/28 02:58:04;;;;;;;3.20;2.77;;;;;;;-0.59;100.00;100793.13;5009605;28;20073;-74
2022/02/28 03:00:30;;;;;;;14.63;12.27;;;;;;;-0.51;100.00;100808.25;5010316;28;20030;-73
2022/02/28 03:02:56;;;;;;;31.90;25.77;;;;;;;-0.48;100.00;100806.75;5010455;28;20503;-73
2022/02/28 03:05:21;;;;;;;3.50;2.70;;;;;;;-0.43;100.00;100810.56;5011278;28;20034;-73
2022/02/28 03:07:47;;;;;;;5.13;2.67;;;;;;;-0.54;100.00;100795.28;5010652;28;20731;-73
2022/02/28 03:10:13;;;;;;;3.90;2.10;;;;;;;-0.46;100.00;100802.66;5010481;28;20036;-73
2022/02/28 03:12:41;;;;;;;5.70;3.00;;;;;;;-0.39;100.00;100808.41;5010161;28;20034;-73
2022/02/28 03:15:07;;;;;;;2.57;1.50;;;;;;;-0.49;100.00;100783.00;5009197;28;20032;-74
2022/02/28 03:17:33;;;;;;;0.83;0.83;;;;;;;-0.50;100.00;100783.75;5010395;28;20102;-73
2022/02/28 03:19:59;;;;;;;1.03;1.03;;;;;;;-0.40;100.00;100795.59;5010384;28;20033;-73
2022/02/28 03:22:24;;;;;;;2.40;0.90;;;;;;;-0.46;100.00;100802.66;5009140;28;20085;-74
2022/02/28 03:24:50;;;;;;;0.97;0.87;;;;;;;-0.43;100.00;100798.75;4992866;28;20049;-73
2022/02/28 03:27:15;;;;;;;1.40;0.90;;;;;;;-0.41;100.00;100798.88;5015940;28;20030;-73
2022/02/28 03:29:41;;;;;;;1.60;1.30;;;;;;;-0.45;100.00;100807.00;5017338;28;20028;-73
2022/02/28 03:32:07;;;;;;;2.37;1.40;;;;;;;-0.46;100.00;100801.03;5016591;28;20032;-74
2022/02/28 03:34:32;;;;;;;1.43;1.00;;;;;;;-0.44;100.00;100796.97;5017103;28;20033;-73
2022/02/28 03:36:58;;;;;;;2.03;1.30;;;;;;;-0.50;100.00;100799.88;5015990;28;20029;-74
2022/02/28 03:39:23;;;;;;;2.80;1.80;;;;;;;-0.48;100.00;100786.47;5015464;28;20030;-74
2022/02/28 03:41:53;;;;;;;3.67;2.83;;;;;;;-0.38;100.00;100801.69;5015123;28;20037;-74
2022/02/28 03:44:19;;;;;;;7.43;6.70;;;;;;;-0.43;100.00;100800.41;5016236;28;20487;-73
2022/02/28 03:46:44;;;;;;;1.70;1.60;;;;;;;-0.43;100.00;100800.41;5015454;28;20086;-74
2022/02/28 03:49:10;;;;;;;2.97;2.03;;;;;;;-0.45;100.00;100792.66;5015454;28;20026;-74
2022/02/28 03:51:35;;;;;;;4.73;2.80;;;;;;;-0.38;100.00;100794.97;4997950;28;20030;-73
2022/02/28 03:54:01;;;;;;;6.40;3.90;;;;;;;-0.40;100.00;100795.59;5015627;28;20484;-74
2022/02/28 03:56:26;;;;;;;5.27;2.40;;;;;;;-0.52;100.00;100770.97;5015794;28;20087;-73
2022/02/28 03:58:52;;;;;;;4.57;2.70;;;;;;;-0.44;100.00;100784.28;5015805;28;20041;-73
2022/02/28 04:01:17;;;;;;;5.07;2.70;;;;;;;-0.78;100.00;100734.88;5015408;28;20109;-74
2022/02/28 04:03:42;;;;;;;1.70;1.40;;;;;;;-0.74;100.00;100740.31;5015598;28;20033;-73
2022/02/28 04:06:08;;;;;;;1.90;1.40;;;;;;;-0.40;100.00;100793.06;5015823;28;20038;-74
2022/02/28 04:08:34;;;;;;;1.13;1.03;;;;;;;-0.52;100.00;100776.03;5015094;28;20032;-73
2022/02/28 04:10:59;;;;;;;1.20;1.10;;;;;;;-0.35;100.00;100801.94;5015545;28;20468;-75
2022/02/28 04:13:25;;;;;;;2.00;1.40;;;;;;;-0.38;100.00;100806.78;5014578;28;20037;-75
2022/02/28 04:15:50;;;;;;;1.40;1.10;;;;;;;-0.43;100.00;100808.03;5015126;28;20048;-74
2022/02/28 04:18:16;;;;;;;1.70;1.30;;;;;;;-0.68;100.00;100763.66;5016646;28;20058;-74
2022/02/28 04:20:41;;;;;;;1.90;1.30;;;;;;;-0.44;100.00;100813.84;5014554;28;20500;-74
2022/02/28 04:23:06;;;;;;;3.07;1.60;;;;;;;-0.57;100.00;100791.63;5014395;28;20065;-74
2022/02/28 04:25:32;;;;;;;2.27;1.70;;;;;;;-0.43;100.00;100810.56;5015043;28;20080;-74
2022/02/28 04:27:57;;;;;;;1.97;1.70;;;;;;;-0.56;100.00;100789.22;5015999;28;20026;-74
2022/02/28 04:30:23;;;;;;;18.90;12.40;;;;;;;-0.40;100.00;100820.97;5015054;28;20026;-74
2022/02/28 04:32:48;;;;;;;6.90;4.43;;;;;;;-0.33;100.00;100820.75;5015293;28;20018;-73
2022/02/28 04:35:14;;;;;;;10.47;8.90;;;;;;;-0.38;100.00;100802.56;5015984;28;20037;-73
2022/02/28 04:37:39;;;;;;;47.97;40.00;;;;;;;-0.66;100.00;100766.38;5013182;28;20029;-73
2022/02/28 04:40:06;;;;;;;19.37;16.43;;;;;;;-0.32;100.00;100819.97;5013235;28;20476;-73
2022/02/28 04:42:31;;;;;;;14.63;12.10;;;;;;;-0.49;100.00;100788.09;4978694;28;20073;-74
2022/02/28 04:44:56;;;;;;;4.87;2.97;;;;;;;-0.26;100.00;100822.13;5013060;28;20469;-74
2022/02/28 04:47:23;;;;;;;7.07;4.17;;;;;;;-0.32;100.00;100822.53;4996048;28;20135;-74
2022/02/28 04:49:48;;;;;;;3.20;2.03;;;;;;;-0.30;100.00;100823.53;4995254;28;20034;-75
2022/02/28 04:52:14;;;;;;;1.87;1.63;;;;;;;-0.46;100.00;100790.00;5016753;28;20041;-74
2022/02/28 04:54:39;;;;;;;4.57;2.27;;;;;;;-0.31;100.00;100829.38;5012404;28;20161;-74
2022/02/28 04:57:05;;;;;;;2.97;2.03;;;;;;;-0.46;100.00;100811.19;5025057;28;20091;-74
2022/02/28 04:59:31;;;;;;;2.87;1.90;;;;;;;-0.40;100.00;100816.78;5032693;28;20419;-74
2022/02/28 05:01:56;;;;;;;5.77;2.70;;;;;;;-0.35;100.00;100819.69;5032904;28;20429;-73
2022/02/28 05:04:21;;;;;;;7.23;3.43;;;;;;;-0.40;100.00;100821.88;5032852;28;20041;-74
2022/02/28 05:06:47;;;;;;;8.20;3.97;;;;;;;-0.41;100.00;100820.09;5032693;28;20066;-74
2022/02/28 05:09:12;;;;;;;10.33;5.03;;;;;;;-0.27;100.00;100835.63;5032881;28;20025;-74
2022/02/28 05:11:38;;;;;;;7.97;4.70;;;;;;;-0.29;100.00;100837.13;5032366;28;20029;-73
2022/02/28 05:14:03;;;;;;;6.60;3.80;;;;;;;-0.23;100.00;100835.97;5032684;28;20236;-76
2022/02/28 05:16:29;;;;;;;6.00;3.40;;;;;;;-0.22;100.00;100847.91;5026201;28;20482;-74
2022/02/28 05:18:54;;;;;;;7.30;4.30;;;;;;;-0.29;100.00;100829.50;5030117;28;20566;-73
2022/02/28 05:21:20;;;;;;;6.77;4.13;;;;;;;-0.20;100.00;100854.03;5024715;28;20033;-72
2022/02/28 05:23:45;;;;;;;5.67;3.67;;;;;;;-0.15;100.00;100850.97;5012664;28;20448;-74
2022/02/28 05:26:11;;;;;;;6.83;3.63;;;;;;;-0.08;100.00;100868.53;5012131;28;20116;-74
2022/02/28 05:28:36;;;;;;;7.00;3.67;;;;;;;-0.09;100.00;100864.19;5012839;28;20181;-73
2022/02/28 05:31:02;;;;;;;5.00;3.33;;;;;;;-0.07;100.00;100868.66;5012891;28;20040;-73
2022/02/28 05:33:28;;;;;;;6.93;3.53;;;;;;;-0.03;100.00;100873.22;5011814;28;20045;-73
2022/02/28 05:35:53;;;;;;;8.30;4.70;;;;;;;-0.14;100.00;100852.75;5012213;28;20026;-73
2022/02/28 05:38:19;;;;;;;9.30;5.73;;;;;;;0.07;100.00;100877.44;5012300;28;20044;-74
2022/02/28 05:40:46;;;;;;;10.13;6.00;;;;;;;0.08;100.00;100879.22;5011781;28;20454;-73
2022/02/28 05:43:12;;;;;;;10.77;6.77;;;;;;;0.12;100.00;100876.19;5012123;28;20045;-73
2022/02/28 05:45:37;;;;;;;6.73;3.97;;;;;;;0.23;100.00;100884.72;5022464;28;20026;-73
2022/02/28 05:48:04;;;;;;;6.50;4.07;;;;;;;0.20;100.00;100868.31;5023917;28;20108;-73
2022/02/28 05:50:30;;;;;;;6.50;3.63;;;;;;;0.33;100.00;100886.38;5031936;28;20164;-73
2022/02/28 05:52:56;;;;;;;13.10;10.70;;;;;;;0.46;100.00;100889.22;5026205;28;20548;-74
2022/02/28 05:55:22;;;;;;;13.77;11.53;;;;;;;0.53;100.00;100892.25;5031412;28;20025;-73
2022/02/28 05:57:48;;;;;;;11.97;10.13;;;;;;;0.39;100.00;100851.34;5022030;28;20443;-73
2022/02/28 06:00:15;;;;;;;19.00;16.93;;;;;;;0.46;100.00;100851.09;5020165;28;20030;-74
2022/02/28 06:02:41;;;;;;;19.80;17.70;;;;;;;0.80;100.00;100899.63;5021842;28;20040;-74
2022/02/28 06:05:08;;;;;;;16.40;14.07;;;;;;;0.92;100.00;100906.50;5031767;28;20029;-73
2022/02/28 06:07:33;;;;;;;22.87;19.63;;;;;;;0.76;100.00;100856.94;5032012;28;20120;-73
2022/02/28 06:09:59;;;;;;;14.00;10.87;;;;;;;0.95;100.00;100886.41;5031573;28;20512;-73
2022/02/28 06:12:25;;;;;;;12.03;9.87;;;;;;;0.82;100.00;100860.75;5031815;28;20030;-74
2022/02/28 06:14:50;;;;;;;27.70;20.00;;;;;;;1.12;100.00;100903.03;5031354;28;20096;-74
2022/02/28 06:17:16;;;;;;;35.70;24.23;;;;;;;1.10;100.00;100891.88;5031008;28;20037;-73
2022/02/28 06:19:41;;;;;;;53.97;37.73;;;;;;;1.19;100.00;100904.44;5030422;28;20491;-73
2022/02/28 06:22:07;;;;;;;9.43;5.00;;;;;;;1.14;100.00;100919.31;5013891;28;20512;-75
2022/02/28 06:24:32;;;;;;;4.67;2.70;;;;;;;0.99;100.00;100918.06;5004071;28;20054;-78
2022/02/28 06:26:58;;;;;;;3.53;2.10;;;;;;;0.43;100.00;100845.75;5010164;28;20469;-78
2022/02/28 06:29:23;;;;;;;2.83;1.97;;;;;;;0.72;100.00;100898.09;5011143;28;20034;-77
2022/02/28 06:31:49;;;;;;;6.40;3.53;;;;;;;0.94;100.00;100935.47;5009647;28;20030;-76
2022/02/28 06:34:15;;;;;;;7.07;2.83;;;;;;;0.91;100.00;100928.50;5013789;28;20439;-75
2022/02/28 06:36:41;;;;;;;6.67;2.70;;;;;;;0.91;100.00;100932.66;5011482;28;20081;-75
2022/02/28 06:39:09;;;;;;;5.70;2.70;;;;;;;1.02;100.00;100939.53;5011356;28;20080;-75
2022/02/28 06:41:35;;;;;;;7.47;3.87;;;;;;;1.11;100.00;100937.75;5010441;28;20029;-77
2022/02/28 06:44:00;;;;;;;6.93;3.97;;;;;;;1.16;100.00;100952.50;5010825;28;20452;-77
2022/02/28 06:46:27;;;;;;;7.67;4.27;;;;;;;1.18;100.00;100949.31;5011054;28;20087;-76
2022/02/28 06:48:53;;;;;;;7.30;4.17;;;;;;;1.16;100.00;100922.88;5010390;28;20060;-76
2022/02/28 06:51:19;;;;;;;8.20;4.30;;;;;;;1.18;100.00;100918.78;5010741;28;20072;-76
2022/02/28 06:53:44;;;;;;;9.47;4.50;;;;;;;1.18;100.00;100928.97;5011191;28;20034;-76
2022/02/28 06:56:10;;;;;;;12.77;4.97;;;;;;;1.25;100.00;100945.63;5011285;28;20586;-76
2022/02/28 06:58:36;;;;;;;6.20;3.97;;;;;;;1.11;100.00;100914.88;5011359;28;20041;-75
2022/02/28 07:01:01;;;;;;;8.77;5.30;;;;;;;1.34;100.00;100935.31;5010070;28;20088;-76
2022/02/28 07:03:27;;;;;;;10.43;5.60;;;;;;;1.53;100.00;100958.94;5010000;28;20457;-78
2022/02/28 07:05:54;;;;;;;6.27;3.67;;;;;;;1.65;100.00;100953.94;5010545;28;20087;-78
2022/02/28 07:08:21;;;;;;;5.23;3.23;;;;;;;1.68;100.00;100945.66;5010424;28;20037;-77
2022/02/28 07:10:47;;;;;;;4.97;3.20;;;;;;;1.83;100.00;100959.63;5008355;28;20038;-78
2022/02/28 07:13:14;;;;;;;4.73;3.10;;;;;;;1.78;100.00;100941.44;5008465;28;20482;-78
2022/02/28 07:15:43;;;;;;;5.90;3.27;;;;;;;1.81;100.00;100932.25;5008413;28;20046;-79
2022/02/28 07:18:09;;;;;;;4.68;3.42;;;;;;;2.00;100.00;100962.63;4991422;28;20033;-78
2022/02/28 07:20:35;;;;;;;4.50;3.20;;;;;;;1.92;100.00;100964.59;5008167;28;20070;-78
2022/02/28 07:23:01;;;;;;;5.97;3.17;;;;;;;1.77;100.00;100959.16;5007773;28;20129;-78
2022/02/28 07:25:27;;;;;;;8.00;4.30;;;;;;;1.84;100.00;100963.06;5008104;28;20073;-79
2022/02/28 07:27:53;;;;;;;6.63;3.87;;;;;;;1.90;100.00;100976.28;5008112;28;20073;-78
2022/02/28 07:30:18;;;;;;;5.27;3.17;;;;;;;1.63;100.00;100945.28;4988316;28;20041;-78
2022/02/28 07:32:44;;;;;;;4.43;2.67;;;;;;;1.78;100.00;100966.00;4972848;28;20557;-78
2022/02/28 07:35:09;;;;;;;4.30;3.20;;;;;;;1.44;100.00;100907.31;4968908;28;20039;-76
2022/02/28 07:37:35;;;;;;;7.57;4.37;;;;;;;1.73;100.00;100980.03;4969313;28;20504;-79
2022/02/28 07:40:05;;;;;;;4.30;2.87;;;;;;;1.67;100.00;100985.53;4969026;28;20034;-81
2022/02/28 07:42:31;;;;;;;5.77;3.00;;;;;;;1.59;100.00;100972.16;4969098;28;20075;-78
2022/02/28 07:44:57;;;;;;;4.67;2.73;;;;;;;1.40;100.00;100963.81;4969039;28;20485;-78
2022/02/28 07:47:22;;;;;;;4.97;2.80;;;;;;;1.41;100.00;100991.03;4972045;28;20038;-76
2022/02/28 07:49:48;;;;;;;5.50;2.77;;;;;;;1.23;100.00;100975.13;4990924;28;20045;-77
2022/02/28 07:52:14;;;;;;;5.20;3.00;;;;;;;1.20;100.00;100979.97;4973401;28;20036;-79
2022/02/28 07:54:39;;;;;;;6.00;3.50;;;;;;;1.09;100.00;100994.34;4990827;28;20043;-81
2022/02/28 07:57:05;;;;;;;6.17;4.20;;;;;;;1.04;100.00;101006.66;4990957;28;20034;-77
2022/02/28 07:59:30;;;;;;;6.83;4.47;;;;;;;0.95;100.00;101001.69;4990922;28;20113;-78
2022/02/28 08:01:56;;;;;;;7.37;3.70;;;;;;;0.79;100.00;101011.34;4990245;28;20030;-78
2022/02/28 08:04:21;;;;;;;8.27;4.13;;;;;;;0.80;100.00;101000.41;4990488;28;20027;-81
2022/02/28 08:06:47;;;;;;;5.80;3.63;;;;;;;0.47;100.00;100953.59;4990974;28;20508;-78
2022/02/28 08:09:12;;;;;;;7.00;4.27;;;;;;;0.83;100.00;101007.41;4990524;28;20022;-76
2022/02/28 08:11:38;;;;;;;5.43;3.70;;;;;;;0.75;100.00;101011.84;4990793;28;20452;-78
2022/02/28 08:14:04;;;;;;;4.87;3.60;;;;;;;0.76;100.00;101000.91;4994336;28;20452;-78
2022/02/28 08:16:29;;;;;;;5.90;3.50;;;;;;;0.85;100.00;101024.56;4993622;28;20057;-78
2022/02/28 08:18:55;;;;;;;7.13;3.63;;;;;;;0.83;100.00;101020.13;4994365;28;20462;-76
2022/02/28 08:21:20;;;;;;;5.73;3.97;;;;;;;0.78;100.00;100994.31;4994037;28;20023;-78
2022/02/28 08:23:46;;;;;;;5.40;3.40;;;;;;;0.75;100.00;101005.09;4993953;28;20102;-80
2022/02/28 08:26:11;;;;;;;4.43;2.50;;;;;;;0.68;100.00;101007.88;4994126;28;20038;-76
2022/02/28 08:28:37;;;;;;;4.97;3.07;;;;;;;0.64;100.00;100995.69;4992690;28;20034;-75
2022/02/28 08:31:02;;;;;;;3.17;2.10;;;;;;;0.78;100.00;101025.69;4993680;28;20034;-77
2022/02/28 08:33:28;;;;;;;3.10;2.30;;;;;;;0.83;100.00;101022.66;4994044;28;20546;-77
2022/02/28 08:35:53;;;;;;;3.80;2.50;;;;;;;0.89;100.00;101023.19;4994227;28;20045;-77
2022/02/28 08:38:19;;;;;;;7.40;3.93;;;;;;;0.78;100.00;101024.81;4993758;28;20037;-78
2022/02/28 08:40:45;;;;;;;4.27;2.43;;;;;;;0.73;100.00;101014.25;4993992;28;20165;-78
2022/02/28 08:43:11;;;;;;;4.07;3.40;;;;;;;0.63;100.00;101004.94;4993768;28;20117;-75
2022/02/28 08:45:36;;;;;;;6.63;5.93;;;;;;;0.69;100.00;101009.66;4993678;28;20165;-81
2022/02/28 08:48:03;;;;;;;11.07;9.20;;;;;;;0.74;100.00;101012.59;4992682;28;20030;-77
2022/02/28 08:50:28;;;;;;;10.83;9.10;;;;;;;0.86;100.00;101023.81;4993920;28;20038;-78
2022/02/28 08:52:55;;;;;;;4.13;2.80;;;;;;;0.82;100.00;101020.88;4981031;28;20049;-76
2022/02/28 08:55:20;;;;;;;5.17;3.63;;;;;;;0.86;100.00;101025.44;5009583;28;20405;-78
2022/02/28 08:57:47;;;;;;;5.07;2.60;;;;;;;0.50;100.00;100946.25;5013640;28;20026;-77
2022/02/28 09:00:13;;;;;;;3.43;2.37;;;;;;;0.94;100.00;101020.25;5013187;28;20766;-74
2022/02/28 09:02:39;;;;;;;2.77;1.90;;;;;;;1.00;100.00;101027.53;5013736;28;20069;-77
2022/02/28 09:05:06;;;;;;;4.30;2.53;;;;;;;1.09;100.00;101040.13;5013405;28;20084;-77
2022/02/28 09:07:32;;;;;;;2.67;2.13;;;;;;;1.04;100.00;101021.03;5013688;28;20044;-76
2022/02/28 09:09:57;;;;;;;2.87;2.30;;;;;;;1.22;100.00;101020.03;5013379;28;20029;-75
2022/02/28 09:12:23;;;;;;;3.33;2.47;;;;;;;1.22;100.00;101025.13;5013240;28;20117;-75
2022/02/28 09:14:51;;;;;;;4.07;2.10;;;;;;;1.16;100.00;101004.28;5012854;28;20033;-77
2022/02/28 09:17:17;;;;;;;5.97;3.50;;;;;;;1.13;100.00;101004.91;5031189;28;20033;-77
2022/02/28 09:19:42;;;;;;;8.00;4.97;;;;;;;1.22;100.00;101016.59;5032776;28;20052;-77
2022/02/28 09:22:08;;;;;;;39.83;16.90;;;;;;;1.44;100.00;101017.59;5032200;28;20087;-76
2022/02/28 09:24:34;;;;;;;19.80;11.30;;;;;;;1.61;100.00;101011.34;5032334;28;20061;-77
2022/02/28 09:27:00;;;;;;;4.70;3.20;;;;;;;1.42;100.00;100978.44;5032603;28;20033;-81
2022/02/28 09:29:27;;;;;;;4.10;2.80;;;;;;;1.87;100.00;101014.22;5032409;28;20037;-76
2022/02/28 09:31:52;;;;;;;2.97;2.30;;;;;;;1.97;100.00;101016.75;5025366;28;20030;-76
2022/02/28 09:34:18;;;;;;;4.60;2.90;;;;;;;2.01;100.00;101023.00;5022071;28;20099;-75
2022/02/28 09:36:43;;;;;;;4.17;2.70;;;;;;;2.27;100.00;101022.50;5021087;28;20400;-79
2022/02/28 09:39:09;;;;;;;4.40;2.80;;;;;;;2.13;100.00;100974.66;5022939;28;20028;-74
2022/02/28 09:41:35;;;;;;;2.47;2.10;;;;;;;2.36;100.00;101007.06;5027198;28;20033;-75
2022/02/28 09:44:04;;;;;;;3.57;2.37;;;;;;;2.64;100.00;101017.75;5032163;28;20090;-72
2022/02/28 09:46:29;;;;;;;3.33;2.60;;;;;;;2.71;100.00;101025.09;5032011;28;20063;-73
2022/02/28 09:48:55;;;;;;;3.00;2.00;;;;;;;2.82;100.00;101022.50;4997370;28;20042;-75
2022/02/28 09:51:21;;;;;;;4.37;2.07;;;;;;;2.93;100.00;101014.00;5026176;28;20483;-72
2022/02/28 09:53:46;;;;;;;2.50;1.97;;;;;;;2.82;100.00;100997.00;5020291;28;20120;-75
2022/02/28 09:56:12;;;;;;;5.53;2.53;;;;;;;3.13;100.00;101012.97;5023075;28;20064;-80
2022/02/28 09:58:38;;;;;;;2.83;1.90;;;;;;;2.95;100.00;100961.44;5021363;28;20105;-74
2022/02/28 10:01:03;;;;;;;3.20;2.10;;;;;;;3.20;100.00;101015.22;5018534;28;20524;-75
2022/02/28 10:03:30;;;;;;;3.33;2.10;;;;;;;2.95;100.00;100955.44;5011959;28;20048;-76
2022/02/28 10:05:59;;;;;;;3.97;2.77;;;;;;;3.27;100.00;101008.88;5011720;28;20507;-77
2022/02/28 10:08:45;;;;;;;3.25;2.00;;;;;;;3.34;100.00;101000.00;5012197;28;20113;-77
2022/02/28 10:11:29;;;;;;;4.50;2.77;;;;;;;3.28;100.00;100999.56;5015084;28;20489;-76
2022/02/28 10:13:57;;;;;;;4.60;3.57;;;;;;;3.36;100.00;100996.81;5018980;28;20030;-75
2022/02/28 10:16:37;;;;;;;3.78;2.40;;;;;;;3.37;100.00;101006.25;5020392;28;20029;-75
2022/02/28 10:19:10;;;;;;;2.77;1.73;;;;;;;3.31;100.00;101005.78;5020902;28;20038;-77
2022/02/28 10:21:42;;;;;;;6.17;3.53;;;;;;;3.25;100.00;100995.13;5006822;28;20030;-78
2022/02/28 10:24:09;;;;;;;3.33;2.03;;;;;;;3.33;100.00;100994.03;5031053;28;20550;-74
2022/02/28 10:26:47;;;;;;;2.93;1.70;;;;;;;3.38;100.00;100999.50;5013878;28;20475;-78
2022/02/28 10:29:15;;;;;;;2.57;1.63;;;;;;;3.32;100.00;101002.47;5031702;28;20030;-74
2022/02/28 10:31:43;;;;;;;2.53;1.77;;;;;;;3.31;100.00;101000.69;5023023;28;20044;-77
2022/02/28 10:34:20;;;;;;;2.23;1.53;;;;;;;3.28;100.00;100992.81;5021459;28;20025;-76
2022/02/28 10:36:58;;;;;;;2.40;1.57;;;;;;;3.37;100.00;100998.59;5021607;28;20100;-78
2022/02/28 10:39:41;;;;;;;2.37;1.60;;;;;;;3.26;100.00;100978.16;5022041;28;20021;-77
2022/02/28 10:42:14;;;;;;;2.57;1.63;;;;;;;3.50;100.00;100994.38;5013557;28;20022;-77
2022/02/28 10:44:41;;;;;;;3.47;2.10;;;;;;;3.50;100.00;100994.38;5011606;28;20025;-78
2022/02/28 10:47:10;;;;;;;2.83;1.80;;;;;;;3.68;100.00;101000.84;5011470;28;20373;-75
2022/02/28 10:49:38;;;;;;;3.72;2.17;;;;;;;3.56;100.00;100985.53;5011371;28;20472;-79
2022/02/28 10:52:13;;;;;;;5.00;2.40;;;;;;;3.63;100.00;101003.84;5011461;28;20034;-75
2022/02/28 10:54:41;;;;;;;2.83;1.83;;;;;;;3.61;100.00;101001.16;5010986;28;20117;-74
2022/02/28 10:57:08;;;;;;;3.43;1.90;;;;;;;3.40;100.00;100967.28;4993604;28;20033;-77
2022/02/28 10:59:51;;;;;;;3.47;1.80;;;;;;;3.58;100.00;100998.41;4989096;28;20404;-77
2022/02/28 11:02:34;;;;;;;1.80;1.30;;;;;;;3.34;100.00;100966.84;5011124;28;20088;-79
2022/02/28 11:05:08;;;;;;;7.43;1.93;;;;;;;3.46;100.00;100994.94;4993518;28;20496;-79
2022/02/28 11:07:47;;;;;;;5.73;3.10;;;;;;;3.46;100.00;101000.06;4993655;28;20112;-78
2022/02/28 11:10:15;;;;;;;7.25;3.75;;;;;;;3.37;100.00;100993.47;4993550;28;20513;-78
2022/02/28 11:12:41;;;;;;;5.20;2.93;;;;;;;3.39;100.00;101014.03;5011173;28;20038;-77
2022/02/28 11:15:21;;;;;;;6.70;4.47;;;;;;;3.39;100.00;101003.81;5010874;28;20081;-78